sensor_id;sensor_type;location;lat;lon;timestamp;P1;durP1;ratioP1;P2;durP2;ratioP2
24153;SDS011;12312;53.362;-1.518;2024-02-21T00:02:27;12.05;;;4.88;;
24153;SDS011;12312;53.362;-1.518;2024-02-21T00:05:11;8.38;;;4.07;;
24153;SDS011;12312;53.362;-1.518;2024-02-21T00:07:55;11.80;;;4.88;;
24153;SDS011;12312;53.362;-1.518;2024-02-21T00:10:39;14.48;;;4.80;;
24153;SDS011;12312;53.362;-1.518;2024-02-21T00:13:23;11.15;;;4.43;;
24153;SDS011;12312;53.362;-1.518;2024-02-21T00:16:07;7.78;;;4.13;;
24153;SDS011;12312;53.362;-1.518;2024-02-21T00:18:51;11.73;;;4.13;;
24153;SDS011;12312;53.362;-1.518;2024-02-21T00:21:35;7.60;;;4.13;;
24153;SDS011;12312;53.362;-1.518;2024-02-21T00:24:19;9.63;;;4.00;;
24153;SDS011;12312;53.362;-1.518;2024-02-21T00:27:03;7.40;;;3.60;;
24153;SDS011;12312;53.362;-1.518;2024-02-21T00:29:47;8.85;;;3.53;;
24153;SDS011;12312;53.362;-1.518;2024-02-21T00:32:31;9.68;;;3.97;;
24153;SDS011;12312;53.362;-1.518;2024-02-21T00:35:18;9.90;;;3.67;;
24153;SDS011;12312;53.362;-1.518;2024-02-21T00:38:03;9.85;;;4.10;;
24153;SDS011;12312;53.362;-1.518;2024-02-21T00:40:47;8.77;;;3.60;;
24153;SDS011;12312;53.362;-1.518;2024-02-21T00:43:31;10.07;;;4.50;;
24153;SDS011;12312;53.362;-1.518;2024-02-21T00:46:15;10.57;;;5.20;;
24153;SDS011;12312;53.362;-1.518;2024-02-21T00:48:59;14.27;;;4.88;;
24153;SDS011;12312;53.362;-1.518;2024-02-21T00:51:43;11.95;;;4.47;;
24153;SDS011;12312;53.362;-1.518;2024-02-21T00:54:27;10.00;;;4.60;;
24153;SDS011;12312;53.362;-1.518;2024-02-21T00:57:11;10.07;;;4.35;;
24153;SDS011;12312;53.362;-1.518;2024-02-21T00:59:55;9.55;;;4.38;;
24153;SDS011;12312;53.362;-1.518;2024-02-21T01:02:39;11.88;;;5.25;;
24153;SDS011;12312;53.362;-1.518;2024-02-21T01:05:24;11.75;;;4.72;;
24153;SDS011;12312;53.362;-1.518;2024-02-21T01:08:08;11.23;;;4.90;;
24153;SDS011;12312;53.362;-1.518;2024-02-21T01:10:52;10.35;;;4.95;;
24153;SDS011;12312;53.362;-1.518;2024-02-21T01:13:36;10.05;;;5.00;;
24153;SDS011;12312;53.362;-1.518;2024-02-21T01:16:20;12.25;;;5.32;;
24153;SDS011;12312;53.362;-1.518;2024-02-21T01:19:04;12.48;;;4.55;;
24153;SDS011;12312;53.362;-1.518;2024-02-21T01:21:48;8.40;;;4.43;;
24153;SDS011;12312;53.362;-1.518;2024-02-21T01:24:32;7.78;;;3.63;;
24153;SDS011;12312;53.362;-1.518;2024-02-21T01:27:16;6.80;;;3.58;;
24153;SDS011;12312;53.362;-1.518;2024-02-21T01:30:00;5.85;;;2.95;;
24153;SDS011;12312;53.362;-1.518;2024-02-21T01:32:44;8.82;;;3.78;;
24153;SDS011;12312;53.362;-1.518;2024-02-21T01:35:28;7.20;;;3.38;;
24153;SDS011;12312;53.362;-1.518;2024-02-21T01:38:13;5.80;;;3.10;;
24153;SDS011;12312;53.362;-1.518;2024-02-21T01:40:57;5.65;;;2.90;;
24153;SDS011;12312;53.362;-1.518;2024-02-21T01:43:41;6.07;;;2.95;;
24153;SDS011;12312;53.362;-1.518;2024-02-21T01:46:25;10.85;;;5.00;;
24153;SDS011;12312;53.362;-1.518;2024-02-21T01:49:14;10.55;;;5.25;;
24153;SDS011;12312;53.362;-1.518;2024-02-21T01:51:58;11.30;;;5.47;;
24153;SDS011;12312;53.362;-1.518;2024-02-21T01:54:42;9.20;;;4.22;;
24153;SDS011;12312;53.362;-1.518;2024-02-21T01:57:27;11.45;;;4.32;;
24153;SDS011;12312;53.362;-1.518;2024-02-21T02:00:13;11.00;;;4.10;;
24153;SDS011;12312;53.362;-1.518;2024-02-21T02:02:58;10.45;;;4.50;;
24153;SDS011;12312;53.362;-1.518;2024-02-21T02:05:49;9.23;;;3.60;;
24153;SDS011;12312;53.362;-1.518;2024-02-21T02:08:34;8.70;;;3.85;;
24153;SDS011;12312;53.362;-1.518;2024-02-21T02:11:18;8.60;;;3.97;;
24153;SDS011;12312;53.362;-1.518;2024-02-21T02:14:02;13.55;;;5.82;;
24153;SDS011;12312;53.362;-1.518;2024-02-21T02:16:47;16.83;;;6.90;;
24153;SDS011;12312;53.362;-1.518;2024-02-21T02:19:31;17.42;;;7.07;;
24153;SDS011;12312;53.362;-1.518;2024-02-21T02:22:16;15.35;;;6.95;;
24153;SDS011;12312;53.362;-1.518;2024-02-21T02:25:06;16.15;;;6.65;;
24153;SDS011;12312;53.362;-1.518;2024-02-21T02:27:51;17.50;;;6.85;;
24153;SDS011;12312;53.362;-1.518;2024-02-21T02:30:35;14.30;;;5.63;;
24153;SDS011;12312;53.362;-1.518;2024-02-21T02:33:20;15.05;;;5.70;;
24153;SDS011;12312;53.362;-1.518;2024-02-21T02:36:04;11.77;;;5.43;;
24153;SDS011;12312;53.362;-1.518;2024-02-21T02:38:48;12.43;;;4.88;;
24153;SDS011;12312;53.362;-1.518;2024-02-21T02:41:34;14.10;;;5.93;;
24153;SDS011;12312;53.362;-1.518;2024-02-21T02:44:19;11.55;;;5.32;;
24153;SDS011;12312;53.362;-1.518;2024-02-21T02:47:03;14.93;;;5.82;;
24153;SDS011;12312;53.362;-1.518;2024-02-21T02:49:47;9.20;;;5.05;;
24153;SDS011;12312;53.362;-1.518;2024-02-21T02:52:34;13.43;;;5.82;;
24153;SDS011;12312;53.362;-1.518;2024-02-21T02:55:18;11.30;;;5.13;;
24153;SDS011;12312;53.362;-1.518;2024-02-21T02:58:02;12.35;;;5.90;;
24153;SDS011;12312;53.362;-1.518;2024-02-21T03:00:46;12.27;;;5.78;;
24153;SDS011;12312;53.362;-1.518;2024-02-21T03:03:30;14.48;;;5.13;;
24153;SDS011;12312;53.362;-1.518;2024-02-21T03:06:14;12.95;;;5.40;;
24153;SDS011;12312;53.362;-1.518;2024-02-21T03:08:58;15.35;;;5.57;;
24153;SDS011;12312;53.362;-1.518;2024-02-21T03:11:44;12.20;;;6.18;;
24153;SDS011;12312;53.362;-1.518;2024-02-21T03:14:28;13.73;;;5.45;;
24153;SDS011;12312;53.362;-1.518;2024-02-21T03:17:13;13.98;;;5.68;;
24153;SDS011;12312;53.362;-1.518;2024-02-21T03:19:57;13.05;;;5.45;;
24153;SDS011;12312;53.362;-1.518;2024-02-21T03:22:41;13.20;;;5.70;;
24153;SDS011;12312;53.362;-1.518;2024-02-21T03:25:25;10.98;;;5.45;;
24153;SDS011;12312;53.362;-1.518;2024-02-21T03:28:09;12.02;;;5.85;;
24153;SDS011;12312;53.362;-1.518;2024-02-21T03:30:53;11.68;;;5.55;;
24153;SDS011;12312;53.362;-1.518;2024-02-21T03:33:37;11.90;;;5.32;;
24153;SDS011;12312;53.362;-1.518;2024-02-21T03:36:22;16.00;;;6.10;;
24153;SDS011;12312;53.362;-1.518;2024-02-21T03:39:05;9.73;;;5.47;;
24153;SDS011;12312;53.362;-1.518;2024-02-21T03:41:51;13.52;;;5.65;;
24153;SDS011;12312;53.362;-1.518;2024-02-21T03:44:36;9.65;;;4.68;;
24153;SDS011;12312;53.362;-1.518;2024-02-21T03:47:20;11.32;;;4.78;;
24153;SDS011;12312;53.362;-1.518;2024-02-21T03:50:04;10.15;;;4.68;;
24153;SDS011;12312;53.362;-1.518;2024-02-21T03:52:49;12.18;;;4.57;;
24153;SDS011;12312;53.362;-1.518;2024-02-21T03:55:33;8.40;;;4.35;;
24153;SDS011;12312;53.362;-1.518;2024-02-21T03:58:18;10.05;;;4.43;;
24153;SDS011;12312;53.362;-1.518;2024-02-21T04:01:02;9.35;;;5.05;;
24153;SDS011;12312;53.362;-1.518;2024-02-21T04:03:47;9.27;;;4.78;;
24153;SDS011;12312;53.362;-1.518;2024-02-21T04:06:31;13.27;;;4.80;;
24153;SDS011;12312;53.362;-1.518;2024-02-21T04:09:14;13.20;;;5.13;;
24153;SDS011;12312;53.362;-1.518;2024-02-21T04:11:59;11.15;;;4.97;;
24153;SDS011;12312;53.362;-1.518;2024-02-21T04:14:44;10.82;;;5.30;;
24153;SDS011;12312;53.362;-1.518;2024-02-21T04:17:28;16.30;;;4.72;;
24153;SDS011;12312;53.362;-1.518;2024-02-21T04:20:16;10.77;;;4.32;;
24153;SDS011;12312;53.362;-1.518;2024-02-21T04:23:00;10.45;;;4.32;;
24153;SDS011;12312;53.362;-1.518;2024-02-21T04:25:44;12.70;;;4.47;;
24153;SDS011;12312;53.362;-1.518;2024-02-21T04:28:28;9.15;;;4.20;;
24153;SDS011;12312;53.362;-1.518;2024-02-21T04:31:12;10.60;;;3.78;;
24153;SDS011;12312;53.362;-1.518;2024-02-21T04:33:56;5.05;;;3.05;;
24153;SDS011;12312;53.362;-1.518;2024-02-21T04:36:40;8.55;;;2.88;;
24153;SDS011;12312;53.362;-1.518;2024-02-21T04:39:24;4.68;;;2.85;;
24153;SDS011;12312;53.362;-1.518;2024-02-21T04:42:09;4.90;;;2.35;;
24153;SDS011;12312;53.362;-1.518;2024-02-21T04:44:53;6.40;;;2.78;;
24153;SDS011;12312;53.362;-1.518;2024-02-21T04:47:37;4.72;;;2.83;;
24153;SDS011;12312;53.362;-1.518;2024-02-21T04:50:21;3.47;;;1.80;;
24153;SDS011;12312;53.362;-1.518;2024-02-21T04:53:04;4.53;;;2.10;;
24153;SDS011;12312;53.362;-1.518;2024-02-21T04:55:48;3.25;;;2.00;;
24153;SDS011;12312;53.362;-1.518;2024-02-21T04:58:32;2.35;;;1.50;;
24153;SDS011;12312;53.362;-1.518;2024-02-21T05:01:16;3.55;;;1.75;;
24153;SDS011;12312;53.362;-1.518;2024-02-21T05:04:00;2.78;;;1.60;;
24153;SDS011;12312;53.362;-1.518;2024-02-21T05:06:44;2.58;;;1.25;;
24153;SDS011;12312;53.362;-1.518;2024-02-21T05:09:28;1.27;;;0.85;;
24153;SDS011;12312;53.362;-1.518;2024-02-21T05:12:12;2.63;;;0.88;;
24153;SDS011;12312;53.362;-1.518;2024-02-21T05:14:57;1.40;;;0.90;;
24153;SDS011;12312;53.362;-1.518;2024-02-21T05:17:41;1.25;;;1.00;;
24153;SDS011;12312;53.362;-1.518;2024-02-21T05:20:27;1.92;;;1.10;;
24153;SDS011;12312;53.362;-1.518;2024-02-21T05:23:11;1.40;;;0.98;;
24153;SDS011;12312;53.362;-1.518;2024-02-21T05:25:55;1.45;;;0.90;;
24153;SDS011;12312;53.362;-1.518;2024-02-21T05:28:39;1.58;;;0.77;;
24153;SDS011;12312;53.362;-1.518;2024-02-21T05:31:23;1.25;;;0.90;;
24153;SDS011;12312;53.362;-1.518;2024-02-21T05:34:07;1.02;;;0.90;;
24153;SDS011;12312;53.362;-1.518;2024-02-21T05:36:51;0.93;;;0.80;;
24153;SDS011;12312;53.362;-1.518;2024-02-21T05:39:36;1.00;;;0.70;;
24153;SDS011;12312;53.362;-1.518;2024-02-21T05:42:20;0.60;;;0.60;;
24153;SDS011;12312;53.362;-1.518;2024-02-21T05:45:04;0.75;;;0.50;;
24153;SDS011;12312;53.362;-1.518;2024-02-21T05:47:48;0.50;;;0.40;;
24153;SDS011;12312;53.362;-1.518;2024-02-21T05:50:33;3.90;;;0.60;;
24153;SDS011;12312;53.362;-1.518;2024-02-21T05:53:17;0.80;;;0.60;;
24153;SDS011;12312;53.362;-1.518;2024-02-21T05:56:01;1.40;;;0.77;;
24153;SDS011;12312;53.362;-1.518;2024-02-21T05:58:45;0.90;;;0.70;;
24153;SDS011;12312;53.362;-1.518;2024-02-21T06:01:29;2.95;;;0.90;;
24153;SDS011;12312;53.362;-1.518;2024-02-21T06:04:13;0.70;;;0.50;;
24153;SDS011;12312;53.362;-1.518;2024-02-21T06:06:57;0.77;;;0.70;;
24153;SDS011;12312;53.362;-1.518;2024-02-21T06:09:41;0.90;;;0.57;;
24153;SDS011;12312;53.362;-1.518;2024-02-21T06:12:25;0.90;;;0.50;;
24153;SDS011;12312;53.362;-1.518;2024-02-21T06:15:09;1.48;;;0.65;;
24153;SDS011;12312;53.362;-1.518;2024-02-21T06:17:52;0.77;;;0.55;;
24153;SDS011;12312;53.362;-1.518;2024-02-21T06:20:36;1.50;;;0.80;;
24153;SDS011;12312;53.362;-1.518;2024-02-21T06:23:23;1.40;;;1.13;;
24153;SDS011;12312;53.362;-1.518;2024-02-21T06:26:07;1.00;;;0.80;;
24153;SDS011;12312;53.362;-1.518;2024-02-21T06:28:51;1.30;;;0.90;;
24153;SDS011;12312;53.362;-1.518;2024-02-21T06:31:35;1.23;;;0.93;;
24153;SDS011;12312;53.362;-1.518;2024-02-21T06:34:19;1.20;;;0.98;;
24153;SDS011;12312;53.362;-1.518;2024-02-21T06:37:03;3.72;;;1.40;;
24153;SDS011;12312;53.362;-1.518;2024-02-21T06:39:47;1.70;;;1.10;;
24153;SDS011;12312;53.362;-1.518;2024-02-21T06:42:31;1.58;;;1.05;;
24153;SDS011;12312;53.362;-1.518;2024-02-21T06:45:15;3.05;;;1.00;;
24153;SDS011;12312;53.362;-1.518;2024-02-21T06:47:59;1.77;;;1.08;;
24153;SDS011;12312;53.362;-1.518;2024-02-21T06:50:43;2.17;;;1.00;;
24153;SDS011;12312;53.362;-1.518;2024-02-21T06:53:28;1.75;;;1.10;;
24153;SDS011;12312;53.362;-1.518;2024-02-21T06:56:12;3.22;;;1.13;;
24153;SDS011;12312;53.362;-1.518;2024-02-21T06:58:56;3.78;;;1.10;;
24153;SDS011;12312;53.362;-1.518;2024-02-21T07:01:45;8.13;;;1.30;;
24153;SDS011;12312;53.362;-1.518;2024-02-21T07:04:30;0.98;;;0.77;;
24153;SDS011;12312;53.362;-1.518;2024-02-21T07:07:14;6.15;;;1.17;;
24153;SDS011;12312;53.362;-1.518;2024-02-21T07:09:58;1.65;;;1.10;;
24153;SDS011;12312;53.362;-1.518;2024-02-21T07:12:44;2.85;;;1.10;;
24153;SDS011;12312;53.362;-1.518;2024-02-21T07:15:28;1.98;;;1.20;;
24153;SDS011;12312;53.362;-1.518;2024-02-21T07:18:14;5.03;;;1.40;;
24153;SDS011;12312;53.362;-1.518;2024-02-21T07:20:59;2.13;;;1.17;;
24153;SDS011;12312;53.362;-1.518;2024-02-21T07:23:43;7.22;;;1.65;;
24153;SDS011;12312;53.362;-1.518;2024-02-21T07:26:27;7.57;;;1.42;;
24153;SDS011;12312;53.362;-1.518;2024-02-21T07:29:11;1.77;;;1.10;;
24153;SDS011;12312;53.362;-1.518;2024-02-21T07:31:56;2.03;;;1.05;;
24153;SDS011;12312;53.362;-1.518;2024-02-21T07:34:40;1.42;;;1.17;;
24153;SDS011;12312;53.362;-1.518;2024-02-21T07:37:24;1.83;;;1.40;;
24153;SDS011;12312;53.362;-1.518;2024-02-21T07:40:18;1.80;;;1.20;;
24153;SDS011;12312;53.362;-1.518;2024-02-21T07:43:02;1.65;;;1.27;;
24153;SDS011;12312;53.362;-1.518;2024-02-21T07:45:47;4.70;;;1.58;;
24153;SDS011;12312;53.362;-1.518;2024-02-21T07:48:30;1.65;;;1.23;;
24153;SDS011;12312;53.362;-1.518;2024-02-21T07:51:15;1.75;;;1.30;;
24153;SDS011;12312;53.362;-1.518;2024-02-21T07:54:02;2.38;;;1.27;;
24153;SDS011;12312;53.362;-1.518;2024-02-21T07:59:32;2.92;;;1.65;;
24153;SDS011;12312;53.362;-1.518;2024-02-21T08:02:16;2.70;;;1.33;;
24153;SDS011;12312;53.362;-1.518;2024-02-21T08:05:00;4.57;;;1.95;;
24153;SDS011;12312;53.362;-1.518;2024-02-21T08:07:45;1.40;;;1.13;;
24153;SDS011;12312;53.362;-1.518;2024-02-21T08:10:29;3.03;;;1.40;;
24153;SDS011;12312;53.362;-1.518;2024-02-21T08:13:13;2.13;;;1.17;;
24153;SDS011;12312;53.362;-1.518;2024-02-21T08:15:57;1.63;;;1.30;;
24153;SDS011;12312;53.362;-1.518;2024-02-21T08:18:41;2.88;;;1.15;;
24153;SDS011;12312;53.362;-1.518;2024-02-21T08:21:27;4.53;;;1.13;;
24153;SDS011;12312;53.362;-1.518;2024-02-21T08:24:11;1.17;;;0.90;;
24153;SDS011;12312;53.362;-1.518;2024-02-21T08:26:55;7.10;;;1.15;;
24153;SDS011;12312;53.362;-1.518;2024-02-21T08:29:39;3.08;;;1.10;;
24153;SDS011;12312;53.362;-1.518;2024-02-21T08:32:23;1.17;;;0.80;;
24153;SDS011;12312;53.362;-1.518;2024-02-21T08:35:07;5.55;;;1.38;;
24153;SDS011;12312;53.362;-1.518;2024-02-21T08:37:51;1.58;;;1.05;;
24153;SDS011;12312;53.362;-1.518;2024-02-21T08:40:36;3.65;;;1.00;;
24153;SDS011;12312;53.362;-1.518;2024-02-21T08:43:20;0.93;;;0.70;;
24153;SDS011;12312;53.362;-1.518;2024-02-21T08:46:04;2.63;;;0.80;;
24153;SDS011;12312;53.362;-1.518;2024-02-21T08:48:49;3.78;;;1.00;;
24153;SDS011;12312;53.362;-1.518;2024-02-21T08:51:37;2.08;;;0.80;;
24153;SDS011;12312;53.362;-1.518;2024-02-21T08:54:21;1.30;;;1.05;;
24153;SDS011;12312;53.362;-1.518;2024-02-21T08:57:05;2.00;;;0.70;;
24153;SDS011;12312;53.362;-1.518;2024-02-21T08:59:49;2.50;;;0.60;;
24153;SDS011;12312;53.362;-1.518;2024-02-21T09:02:33;1.35;;;0.90;;
24153;SDS011;12312;53.362;-1.518;2024-02-21T09:05:17;1.58;;;1.27;;
24153;SDS011;12312;53.362;-1.518;2024-02-21T09:08:02;1.10;;;0.70;;
24153;SDS011;12312;53.362;-1.518;2024-02-21T09:10:47;0.80;;;0.80;;
24153;SDS011;12312;53.362;-1.518;2024-02-21T09:13:31;0.60;;;0.60;;
24153;SDS011;12312;53.362;-1.518;2024-02-21T09:16:15;0.85;;;0.70;;
24153;SDS011;12312;53.362;-1.518;2024-02-21T09:19:00;1.63;;;0.80;;
24153;SDS011;12312;53.362;-1.518;2024-02-21T09:21:44;1.20;;;0.77;;
24153;SDS011;12312;53.362;-1.518;2024-02-21T09:24:28;1.23;;;0.65;;
24153;SDS011;12312;53.362;-1.518;2024-02-21T09:27:12;5.13;;;0.70;;
24153;SDS011;12312;53.362;-1.518;2024-02-21T09:29:56;0.60;;;0.60;;
24153;SDS011;12312;53.362;-1.518;2024-02-21T09:32:40;0.70;;;0.43;;
24153;SDS011;12312;53.362;-1.518;2024-02-21T09:35:25;1.23;;;0.80;;
24153;SDS011;12312;53.362;-1.518;2024-02-21T09:38:11;0.85;;;0.63;;
24153;SDS011;12312;53.362;-1.518;2024-02-21T09:40:59;2.60;;;1.08;;
24153;SDS011;12312;53.362;-1.518;2024-02-21T09:46:45;1.25;;;0.60;;
24153;SDS011;12312;53.362;-1.518;2024-02-21T09:49:47;0.95;;;0.70;;
24153;SDS011;12312;53.362;-1.518;2024-02-21T09:52:32;0.98;;;0.70;;
24153;SDS011;12312;53.362;-1.518;2024-02-21T09:55:18;0.40;;;0.40;;
24153;SDS011;12312;53.362;-1.518;2024-02-21T09:58:03;1.50;;;0.60;;
24153;SDS011;12312;53.362;-1.518;2024-02-21T10:00:48;0.55;;;0.55;;
24153;SDS011;12312;53.362;-1.518;2024-02-21T10:03:33;2.47;;;0.60;;
24153;SDS011;12312;53.362;-1.518;2024-02-21T10:06:18;2.13;;;0.57;;
24153;SDS011;12312;53.362;-1.518;2024-02-21T10:09:02;0.63;;;0.60;;
24153;SDS011;12312;53.362;-1.518;2024-02-21T10:11:47;2.72;;;0.60;;
24153;SDS011;12312;53.362;-1.518;2024-02-21T10:14:31;0.47;;;0.40;;
24153;SDS011;12312;53.362;-1.518;2024-02-21T10:17:18;0.82;;;0.40;;
24153;SDS011;12312;53.362;-1.518;2024-02-21T10:20:07;0.65;;;0.55;;
24153;SDS011;12312;53.362;-1.518;2024-02-21T10:23:02;1.13;;;0.82;;
24153;SDS011;12312;53.362;-1.518;2024-02-21T10:25:51;5.63;;;0.73;;
24153;SDS011;12312;53.362;-1.518;2024-02-21T10:28:36;1.92;;;0.57;;
24153;SDS011;12312;53.362;-1.518;2024-02-21T10:31:26;0.95;;;0.52;;
24153;SDS011;12312;53.362;-1.518;2024-02-21T10:34:11;0.77;;;0.50;;
24153;SDS011;12312;53.362;-1.518;2024-02-21T10:37:05;2.15;;;0.57;;
24153;SDS011;12312;53.362;-1.518;2024-02-21T10:39:50;0.40;;;0.40;;
24153;SDS011;12312;53.362;-1.518;2024-02-21T10:42:35;0.40;;;0.40;;
24153;SDS011;12312;53.362;-1.518;2024-02-21T10:48:14;0.73;;;0.47;;
24153;SDS011;12312;53.362;-1.518;2024-02-21T10:51:02;0.45;;;0.45;;
24153;SDS011;12312;53.362;-1.518;2024-02-21T10:56:47;2.00;;;0.50;;
24153;SDS011;12312;53.362;-1.518;2024-02-21T10:59:34;1.77;;;0.40;;
24153;SDS011;12312;53.362;-1.518;2024-02-21T11:02:19;0.40;;;0.40;;
24153;SDS011;12312;53.362;-1.518;2024-02-21T11:05:04;3.63;;;0.93;;
24153;SDS011;12312;53.362;-1.518;2024-02-21T11:07:49;1.83;;;0.80;;
24153;SDS011;12312;53.362;-1.518;2024-02-21T11:10:36;1.15;;;1.00;;
24153;SDS011;12312;53.362;-1.518;2024-02-21T11:13:29;0.98;;;0.70;;
24153;SDS011;12312;53.362;-1.518;2024-02-21T11:16:21;1.45;;;1.00;;
24153;SDS011;12312;53.362;-1.518;2024-02-21T11:19:07;0.90;;;0.75;;
24153;SDS011;12312;53.362;-1.518;2024-02-21T11:21:55;3.13;;;0.93;;
24153;SDS011;12312;53.362;-1.518;2024-02-21T11:24:40;1.90;;;0.93;;
24153;SDS011;12312;53.362;-1.518;2024-02-21T11:30:11;1.70;;;1.00;;
24153;SDS011;12312;53.362;-1.518;2024-02-21T11:33:02;1.77;;;1.00;;
24153;SDS011;12312;53.362;-1.518;2024-02-21T11:35:47;2.15;;;0.73;;
24153;SDS011;12312;53.362;-1.518;2024-02-21T11:38:31;0.88;;;0.70;;
24153;SDS011;12312;53.362;-1.518;2024-02-21T11:41:15;2.63;;;0.77;;
24153;SDS011;12312;53.362;-1.518;2024-02-21T11:43:58;0.93;;;0.60;;
24153;SDS011;12312;53.362;-1.518;2024-02-21T11:46:42;1.10;;;0.60;;
24153;SDS011;12312;53.362;-1.518;2024-02-21T11:49:30;0.40;;;0.40;;
24153;SDS011;12312;53.362;-1.518;2024-02-21T11:52:14;0.90;;;0.60;;
24153;SDS011;12312;53.362;-1.518;2024-02-21T11:54:59;0.85;;;0.65;;
24153;SDS011;12312;53.362;-1.518;2024-02-21T11:57:48;1.75;;;0.70;;
24153;SDS011;12312;53.362;-1.518;2024-02-21T12:00:32;0.40;;;0.40;;
24153;SDS011;12312;53.362;-1.518;2024-02-21T12:03:16;0.63;;;0.50;;
24153;SDS011;12312;53.362;-1.518;2024-02-21T12:06:00;0.50;;;0.50;;
24153;SDS011;12312;53.362;-1.518;2024-02-21T12:08:44;2.05;;;0.50;;
24153;SDS011;12312;53.362;-1.518;2024-02-21T12:11:29;0.40;;;0.40;;
24153;SDS011;12312;53.362;-1.518;2024-02-21T12:14:15;0.77;;;0.60;;
24153;SDS011;12312;53.362;-1.518;2024-02-21T12:17:00;0.65;;;0.50;;
24153;SDS011;12312;53.362;-1.518;2024-02-21T12:19:47;1.00;;;0.70;;
24153;SDS011;12312;53.362;-1.518;2024-02-21T12:22:33;1.17;;;0.57;;
24153;SDS011;12312;53.362;-1.518;2024-02-21T12:25:17;1.13;;;0.68;;
24153;SDS011;12312;53.362;-1.518;2024-02-21T12:30:47;1.27;;;0.50;;
24153;SDS011;12312;53.362;-1.518;2024-02-21T12:33:31;0.55;;;0.50;;
24153;SDS011;12312;53.362;-1.518;2024-02-21T12:36:16;0.40;;;0.40;;
24153;SDS011;12312;53.362;-1.518;2024-02-21T12:39:00;0.50;;;0.50;;
24153;SDS011;12312;53.362;-1.518;2024-02-21T12:41:46;0.32;;;0.32;;
24153;SDS011;12312;53.362;-1.518;2024-02-21T12:44:30;1.80;;;0.70;;
24153;SDS011;12312;53.362;-1.518;2024-02-21T12:47:15;0.65;;;0.60;;
24153;SDS011;12312;53.362;-1.518;2024-02-21T12:50:00;0.52;;;0.40;;
24153;SDS011;12312;53.362;-1.518;2024-02-21T12:52:44;1.00;;;0.60;;
24153;SDS011;12312;53.362;-1.518;2024-02-21T12:55:28;0.82;;;0.60;;
24153;SDS011;12312;53.362;-1.518;2024-02-21T12:58:12;0.43;;;0.43;;
24153;SDS011;12312;53.362;-1.518;2024-02-21T13:00:57;0.52;;;0.50;;
24153;SDS011;12312;53.362;-1.518;2024-02-21T13:03:41;0.40;;;0.40;;
24153;SDS011;12312;53.362;-1.518;2024-02-21T13:06:25;0.88;;;0.70;;
24153;SDS011;12312;53.362;-1.518;2024-02-21T13:09:09;0.45;;;0.45;;
24153;SDS011;12312;53.362;-1.518;2024-02-21T13:14:39;0.68;;;0.50;;
24153;SDS011;12312;53.362;-1.518;2024-02-21T13:17:27;0.50;;;0.50;;
24153;SDS011;12312;53.362;-1.518;2024-02-21T13:20:13;1.02;;;0.60;;
24153;SDS011;12312;53.362;-1.518;2024-02-21T13:22:57;0.68;;;0.60;;
24153;SDS011;12312;53.362;-1.518;2024-02-21T13:25:41;0.68;;;0.40;;
24153;SDS011;12312;53.362;-1.518;2024-02-21T13:28:26;0.30;;;0.30;;
24153;SDS011;12312;53.362;-1.518;2024-02-21T13:31:10;0.43;;;0.40;;
24153;SDS011;12312;53.362;-1.518;2024-02-21T13:33:54;0.30;;;0.30;;
24153;SDS011;12312;53.362;-1.518;2024-02-21T13:36:38;0.38;;;0.38;;
24153;SDS011;12312;53.362;-1.518;2024-02-21T13:39:22;0.25;;;0.25;;
24153;SDS011;12312;53.362;-1.518;2024-02-21T13:42:06;0.30;;;0.30;;
24153;SDS011;12312;53.362;-1.518;2024-02-21T13:44:50;0.35;;;0.32;;
24153;SDS011;12312;53.362;-1.518;2024-02-21T13:47:34;0.50;;;0.30;;
24153;SDS011;12312;53.362;-1.518;2024-02-21T13:50:30;0.25;;;0.25;;
24153;SDS011;12312;53.362;-1.518;2024-02-21T13:53:14;2.38;;;0.38;;
24153;SDS011;12312;53.362;-1.518;2024-02-21T13:55:59;0.40;;;0.40;;
24153;SDS011;12312;53.362;-1.518;2024-02-21T13:58:44;0.43;;;0.40;;
24153;SDS011;12312;53.362;-1.518;2024-02-21T14:01:28;0.30;;;0.30;;
24153;SDS011;12312;53.362;-1.518;2024-02-21T14:04:12;1.75;;;0.60;;
24153;SDS011;12312;53.362;-1.518;2024-02-21T14:06:57;0.20;;;0.20;;
24153;SDS011;12312;53.362;-1.518;2024-02-21T14:09:41;0.30;;;0.30;;
24153;SDS011;12312;53.362;-1.518;2024-02-21T14:12:25;0.43;;;0.28;;
24153;SDS011;12312;53.362;-1.518;2024-02-21T14:15:09;1.10;;;0.52;;
24153;SDS011;12312;53.362;-1.518;2024-02-21T14:17:54;0.30;;;0.30;;
24153;SDS011;12312;53.362;-1.518;2024-02-21T14:20:39;0.45;;;0.40;;
24153;SDS011;12312;53.362;-1.518;2024-02-21T14:23:23;0.35;;;0.35;;
24153;SDS011;12312;53.362;-1.518;2024-02-21T14:26:07;0.30;;;0.30;;
24153;SDS011;12312;53.362;-1.518;2024-02-21T14:28:52;2.72;;;0.50;;
24153;SDS011;12312;53.362;-1.518;2024-02-21T14:31:36;0.73;;;0.50;;
24153;SDS011;12312;53.362;-1.518;2024-02-21T14:34:20;0.65;;;0.50;;
24153;SDS011;12312;53.362;-1.518;2024-02-21T14:37:04;0.40;;;0.40;;
24153;SDS011;12312;53.362;-1.518;2024-02-21T14:39:48;0.47;;;0.47;;
24153;SDS011;12312;53.362;-1.518;2024-02-21T14:42:32;0.40;;;0.40;;
24153;SDS011;12312;53.362;-1.518;2024-02-21T14:45:16;0.40;;;0.40;;
24153;SDS011;12312;53.362;-1.518;2024-02-21T14:48:00;0.30;;;0.30;;
24153;SDS011;12312;53.362;-1.518;2024-02-21T14:50:44;0.40;;;0.40;;
24153;SDS011;12312;53.362;-1.518;2024-02-21T14:53:28;0.30;;;0.30;;
24153;SDS011;12312;53.362;-1.518;2024-02-21T14:56:14;0.50;;;0.50;;
24153;SDS011;12312;53.362;-1.518;2024-02-21T14:58:59;0.65;;;0.65;;
24153;SDS011;12312;53.362;-1.518;2024-02-21T15:01:43;0.60;;;0.50;;
24153;SDS011;12312;53.362;-1.518;2024-02-21T15:04:27;0.90;;;0.80;;
24153;SDS011;12312;53.362;-1.518;2024-02-21T15:07:11;2.47;;;0.90;;
24153;SDS011;12312;53.362;-1.518;2024-02-21T15:09:54;4.63;;;0.90;;
24153;SDS011;12312;53.362;-1.518;2024-02-21T15:12:38;1.90;;;0.80;;
24153;SDS011;12312;53.362;-1.518;2024-02-21T15:15:23;0.50;;;0.50;;
24153;SDS011;12312;53.362;-1.518;2024-02-21T15:18:07;1.45;;;0.80;;
24153;SDS011;12312;53.362;-1.518;2024-02-21T15:20:51;0.70;;;0.70;;
24153;SDS011;12312;53.362;-1.518;2024-02-21T15:23:35;0.60;;;0.55;;
24153;SDS011;12312;53.362;-1.518;2024-02-21T15:26:19;1.02;;;0.80;;
24153;SDS011;12312;53.362;-1.518;2024-02-21T15:29:03;2.35;;;1.20;;
24153;SDS011;12312;53.362;-1.518;2024-02-21T15:31:48;2.95;;;1.38;;
24153;SDS011;12312;53.362;-1.518;2024-02-21T15:34:33;1.70;;;1.00;;
24153;SDS011;12312;53.362;-1.518;2024-02-21T15:37:17;1.98;;;1.08;;
24153;SDS011;12312;53.362;-1.518;2024-02-21T15:40:01;1.38;;;0.98;;
24153;SDS011;12312;53.362;-1.518;2024-02-21T15:42:45;0.90;;;0.80;;
24153;SDS011;12312;53.362;-1.518;2024-02-21T15:45:29;2.85;;;1.65;;
24153;SDS011;12312;53.362;-1.518;2024-02-21T15:48:14;3.22;;;1.75;;
24153;SDS011;12312;53.362;-1.518;2024-02-21T15:50:58;1.70;;;1.42;;
24153;SDS011;12312;53.362;-1.518;2024-02-21T15:53:42;2.45;;;2.00;;
24153;SDS011;12312;53.362;-1.518;2024-02-21T15:56:28;3.70;;;2.17;;
24153;SDS011;12312;53.362;-1.518;2024-02-21T15:59:12;5.43;;;2.35;;
24153;SDS011;12312;53.362;-1.518;2024-02-21T16:01:57;4.65;;;2.30;;
24153;SDS011;12312;53.362;-1.518;2024-02-21T16:04:44;3.78;;;2.53;;
24153;SDS011;12312;53.362;-1.518;2024-02-21T16:07:28;4.50;;;2.78;;
24153;SDS011;12312;53.362;-1.518;2024-02-21T16:10:12;2.33;;;1.77;;
24153;SDS011;12312;53.362;-1.518;2024-02-21T16:12:56;7.75;;;4.22;;
24153;SDS011;12312;53.362;-1.518;2024-02-21T16:15:40;4.07;;;2.70;;
24153;SDS011;12312;53.362;-1.518;2024-02-21T16:18:28;3.53;;;2.47;;
24153;SDS011;12312;53.362;-1.518;2024-02-21T16:21:12;6.95;;;2.13;;
24153;SDS011;12312;53.362;-1.518;2024-02-21T16:23:57;3.95;;;1.67;;
24153;SDS011;12312;53.362;-1.518;2024-02-21T16:26:41;2.83;;;1.65;;
24153;SDS011;12312;53.362;-1.518;2024-02-21T16:29:26;2.90;;;1.75;;
24153;SDS011;12312;53.362;-1.518;2024-02-21T16:32:10;1.52;;;1.10;;
24153;SDS011;12312;53.362;-1.518;2024-02-21T16:34:54;2.08;;;1.30;;